createdAt,value
2019-06-20T00:02:01.182Z,21.16
2019-06-20T00:04:27.182Z,21.04
2019-06-20T00:06:53.200Z,20.84
2019-06-20T00:09:22.484Z,20.71
2019-06-20T00:11:48.726Z,20.58
2019-06-20T00:14:14.804Z,20.33
2019-06-20T00:16:41.323Z,20.32
2019-06-20T00:19:07.287Z,20.34
2019-06-20T00:21:33.258Z,20.33
2019-06-20T00:23:59.280Z,20.43
2019-06-20T00:26:25.251Z,20.35
2019-06-20T00:28:51.355Z,20.33
2019-06-20T00:31:17.780Z,20.26
2019-06-20T00:33:43.805Z,20.27
2019-06-20T00:36:09.819Z,20.21
2019-06-20T00:38:35.826Z,20.20
2019-06-20T00:41:01.927Z,20.07
2019-06-20T00:43:27.896Z,20.06
2019-06-20T00:45:53.904Z,19.94
2019-06-20T00:48:19.925Z,19.88
2019-06-20T00:50:45.915Z,19.89
2019-06-20T00:53:12.064Z,19.98
2019-06-20T00:55:38.133Z,20.04
2019-06-20T00:58:04.101Z,20.09
2019-06-20T01:00:30.118Z,20.02
2019-06-20T01:02:56.086Z,19.96
2019-06-20T01:05:22.289Z,20.02
2019-06-20T01:07:48.373Z,20.09
2019-06-20T01:10:15.000Z,20.16
2019-06-20T01:12:41.039Z,20.13
2019-06-20T01:15:07.751Z,20.01
2019-06-20T01:17:34.612Z,19.98
2019-06-20T01:20:00.647Z,19.91
2019-06-20T01:22:26.682Z,20.09
2019-06-20T01:24:52.912Z,20.06
2019-06-20T01:27:18.992Z,19.74
2019-06-20T01:29:45.013Z,19.75
2019-06-20T01:32:11.025Z,20.01
2019-06-20T01:34:37.000Z,20.31
2019-06-20T01:37:03.372Z,20.06
2019-06-20T01:39:29.393Z,20.24
2019-06-20T01:41:55.375Z,20.26
2019-06-20T01:44:21.412Z,20.07
2019-06-20T01:46:47.644Z,19.73
2019-06-20T01:49:13.616Z,19.54
2019-06-20T01:51:39.645Z,19.42
2019-06-20T01:54:05.749Z,19.17
2019-06-20T01:56:31.836Z,19.09
2019-06-20T01:58:57.932Z,19.07
2019-06-20T02:01:23.956Z,19.24
2019-06-20T02:03:49.969Z,19.10
2019-06-20T02:06:15.945Z,19.23
2019-06-20T02:08:41.971Z,19.38
2019-06-20T02:11:08.001Z,19.58
2019-06-20T02:13:34.044Z,19.45
2019-06-20T02:16:00.132Z,19.52
2019-06-20T02:18:26.217Z,19.31
2019-06-20T02:20:54.754Z,19.21
2019-06-20T02:23:21.380Z,19.59
2019-06-20T02:25:47.501Z,19.68
2019-06-20T02:28:14.280Z,19.75
2019-06-20T02:30:40.515Z,19.86
2019-06-20T02:33:06.497Z,19.39
2019-06-20T02:35:32.606Z,19.39
2019-06-20T02:37:58.862Z,19.68
2019-06-20T02:40:24.954Z,19.86
2019-06-20T02:42:50.987Z,19.71
2019-06-20T02:45:17.405Z,19.77
2019-06-20T02:47:43.401Z,19.85
2019-06-20T02:50:10.010Z,19.80
2019-06-20T02:52:36.139Z,19.57
2019-06-20T02:55:03.160Z,19.38
2019-06-20T02:57:29.279Z,19.44
2019-06-20T02:59:55.268Z,19.40
2019-06-20T03:02:21.256Z,19.26
2019-06-20T03:04:47.283Z,19.42
2019-06-20T03:07:13.257Z,19.16
2019-06-20T03:09:39.265Z,19.06
2019-06-20T03:12:05.245Z,18.76
2019-06-20T03:14:44.499Z,18.63
2019-06-20T03:16:59.184Z,19.06
2019-06-20T03:19:25.189Z,18.78
2019-06-20T03:21:51.219Z,18.71
2019-06-20T03:24:17.283Z,18.76
2019-06-20T03:26:43.267Z,18.73
2019-06-20T03:29:09.247Z,18.77
2019-06-20T03:31:35.284Z,18.99
2019-06-20T03:34:01.357Z,18.92
2019-06-20T03:36:27.437Z,18.91
2019-06-20T03:38:53.495Z,18.68
2019-06-20T03:41:19.516Z,18.70
2019-06-20T03:43:45.515Z,18.77
2019-06-20T03:46:11.564Z,18.55
2019-06-20T03:48:37.535Z,18.55
2019-06-20T03:51:03.568Z,18.63
2019-06-20T03:53:29.583Z,18.84
2019-06-20T03:55:55.599Z,18.96
2019-06-20T03:58:21.713Z,19.09
2019-06-20T04:00:47.796Z,19.18
2019-06-20T04:03:14.094Z,19.54
2019-06-20T04:05:40.547Z,19.61
2019-06-20T04:08:06.548Z,19.55
2019-06-20T04:10:32.710Z,19.45
2019-06-20T04:12:58.777Z,19.56
2019-06-20T04:15:24.901Z,19.59
2019-06-20T04:17:50.884Z,19.55
2019-06-20T04:20:16.900Z,19.71
2019-06-20T04:22:43.014Z,19.73
2019-06-20T04:25:09.104Z,19.82
2019-06-20T04:27:35.552Z,19.92
2019-06-20T04:30:01.945Z,19.98
2019-06-20T04:32:27.979Z,20.11
2019-06-20T04:34:54.052Z,20.20
2019-06-20T04:37:20.186Z,20.20
2019-06-20T04:39:46.161Z,20.24
2019-06-20T04:42:12.168Z,20.36
2019-06-20T04:44:38.204Z,20.51
2019-06-20T04:47:06.109Z,20.64
2019-06-20T04:49:32.104Z,20.66
2019-06-20T04:51:58.120Z,20.61
2019-06-20T04:54:24.095Z,20.73
2019-06-20T04:56:50.078Z,20.84
2019-06-20T04:59:16.096Z,20.89
2019-06-20T05:01:42.256Z,20.86
2019-06-20T05:04:08.312Z,21.04
2019-06-20T05:06:34.291Z,21.19
2019-06-20T05:09:00.310Z,21.16
2019-06-20T05:11:26.362Z,21.32
2019-06-20T05:13:52.436Z,21.32
2019-06-20T05:16:18.593Z,21.43
2019-06-20T05:18:44.639Z,21.53
2019-06-20T05:21:10.730Z,21.21
2019-06-20T05:23:36.700Z,21.33
2019-06-20T05:26:02.720Z,21.34
2019-06-20T05:28:28.727Z,21.38
2019-06-20T05:30:54.825Z,21.53
2019-06-20T05:33:20.833Z,21.55
2019-06-20T05:35:46.939Z,21.68
2019-06-20T05:38:12.946Z,21.68
2019-06-20T05:40:39.188Z,21.89
2019-06-20T05:43:05.238Z,21.66
2019-06-20T05:45:31.245Z,21.82
2019-06-20T05:47:57.328Z,21.81
2019-06-20T05:50:23.357Z,21.61
2019-06-20T05:52:49.394Z,21.88
2019-06-20T05:55:15.847Z,21.50
2019-06-20T05:57:41.816Z,21.67
2019-06-20T06:00:10.083Z,21.84
2019-06-20T06:02:36.163Z,22.13
2019-06-20T06:05:06.129Z,22.12
2019-06-20T06:07:32.242Z,22.21
2019-06-20T06:09:58.472Z,22.21
2019-06-20T06:12:24.528Z,22.50
2019-06-20T06:14:50.520Z,22.41
2019-06-20T06:17:16.549Z,22.53
2019-06-20T06:19:42.558Z,22.66
2019-06-20T06:22:08.551Z,22.65
2019-06-20T06:24:34.611Z,22.28
2019-06-20T06:27:00.704Z,22.41
2019-06-20T06:29:26.744Z,22.38
2019-06-20T06:31:52.817Z,22.52
2019-06-20T06:34:21.891Z,22.28
2019-06-20T06:36:46.743Z,22.43
2019-06-20T06:39:12.819Z,22.57
2019-06-20T06:41:38.862Z,22.71
2019-06-20T06:44:07.598Z,22.87
2019-06-20T06:46:43.613Z,23.02
2019-06-20T06:49:00.849Z,23.05
2019-06-20T06:51:27.931Z,23.22
2019-06-20T06:53:54.056Z,23.02
2019-06-20T06:56:20.231Z,23.01
2019-06-20T06:58:46.256Z,22.70
2019-06-20T07:01:12.301Z,22.61
2019-06-20T07:03:38.354Z,22.52
2019-06-20T07:06:04.395Z,22.72
2019-06-20T07:08:30.507Z,22.55
2019-06-20T07:10:56.492Z,22.50
2019-06-20T07:13:22.591Z,22.64
2019-06-20T07:15:48.855Z,22.44
2019-06-20T07:18:14.946Z,22.71
2019-06-20T07:20:40.974Z,22.98
2019-06-20T07:23:07.030Z,23.56
2019-06-20T07:25:33.047Z,24.06
2019-06-20T07:27:59.161Z,23.88
2019-06-20T07:30:25.326Z,24.05
2019-06-20T07:32:51.389Z,24.24
2019-06-20T07:35:18.387Z,24.75
2019-06-20T07:37:44.711Z,25.27
2019-06-20T07:40:11.327Z,24.40
2019-06-20T07:42:38.407Z,24.15
2019-06-20T07:45:09.073Z,24.10
2019-06-20T07:47:35.141Z,24.16
2019-06-20T07:50:01.360Z,23.88
2019-06-20T07:52:27.349Z,23.85
2019-06-20T07:54:53.472Z,23.62
2019-06-20T07:57:19.574Z,23.85
2019-06-20T07:59:45.624Z,24.00
2019-06-20T08:02:11.955Z,24.45
2019-06-20T08:04:38.027Z,24.90
2019-06-20T08:07:04.171Z,24.90
2019-06-20T08:09:44.456Z,25.12
2019-06-20T08:11:58.323Z,25.21
2019-06-20T08:14:24.383Z,25.20
2019-06-20T08:16:50.474Z,25.58
2019-06-20T08:19:16.899Z,25.50
2019-06-20T08:21:44.183Z,26.07
2019-06-20T08:24:10.357Z,26.42
2019-06-20T08:26:36.418Z,26.51
2019-06-20T08:29:16.161Z,26.66
2019-06-20T08:31:35.472Z,26.13
2019-06-20T08:34:02.259Z,25.17
2019-06-20T08:36:28.517Z,25.28
2019-06-20T08:38:56.941Z,25.58
2019-06-20T08:41:22.615Z,25.67
2019-06-20T08:43:48.724Z,24.64
2019-06-20T08:46:14.852Z,24.73
2019-06-20T08:48:40.839Z,24.23
2019-06-20T08:51:06.869Z,24.87
2019-06-20T08:53:32.979Z,25.69
2019-06-20T08:55:59.368Z,25.52
2019-06-20T08:58:25.823Z,26.02
2019-06-20T09:00:51.873Z,26.09
2019-06-20T09:03:18.128Z,26.24
2019-06-20T09:05:44.360Z,25.49
2019-06-20T09:08:11.651Z,26.10
2019-06-20T09:10:39.680Z,25.62
2019-06-20T09:13:06.770Z,25.17
2019-06-20T09:15:33.043Z,25.01
2019-06-20T09:17:59.028Z,25.50
2019-06-20T09:20:25.245Z,25.38
2019-06-20T09:22:52.309Z,25.10
2019-06-20T09:25:19.296Z,24.73
2019-06-20T09:27:45.329Z,24.42
2019-06-20T09:30:11.511Z,24.24
2019-06-20T09:32:37.615Z,24.14
2019-06-20T09:35:07.012Z,24.44
2019-06-20T09:37:33.393Z,24.53
2019-06-20T09:39:59.652Z,24.27
2019-06-20T09:42:25.619Z,24.34
2019-06-20T09:44:52.632Z,24.46
2019-06-20T09:47:18.886Z,24.58
2019-06-20T09:49:44.901Z,24.93
2019-06-20T09:52:11.155Z,25.90
2019-06-20T09:54:37.439Z,25.91
2019-06-20T09:57:03.424Z,26.20
2019-06-20T09:59:29.449Z,25.76
2019-06-20T10:01:56.357Z,25.35
2019-06-20T10:04:23.352Z,24.91
2019-06-20T10:06:50.179Z,25.15
2019-06-20T10:09:16.293Z,24.43
2019-06-20T10:11:42.302Z,24.06
2019-06-20T10:14:08.296Z,24.05
2019-06-20T10:16:45.353Z,24.49
2019-06-20T10:19:02.480Z,24.65
2019-06-20T10:21:28.567Z,24.80
2019-06-20T10:23:55.989Z,24.45
2019-06-20T10:26:22.212Z,24.44
2019-06-20T10:28:49.188Z,24.60
2019-06-20T10:31:15.305Z,24.00
2019-06-20T10:33:41.508Z,24.21
2019-06-20T10:36:07.557Z,24.74
2019-06-20T10:38:33.596Z,24.74
2019-06-20T10:41:00.075Z,25.03
2019-06-20T10:43:26.279Z,25.21
2019-06-20T10:45:52.621Z,25.07
2019-06-20T10:48:18.730Z,25.61
2019-06-20T10:50:45.683Z,25.28
2019-06-20T10:53:11.758Z,25.07
2019-06-20T10:55:37.884Z,25.31
2019-06-20T10:58:04.212Z,25.78
2019-06-20T11:00:31.872Z,25.45
2019-06-20T11:02:58.125Z,26.02
2019-06-20T11:05:24.248Z,24.99
2019-06-20T11:07:50.303Z,25.21
2019-06-20T11:10:18.430Z,24.80
2019-06-20T11:12:50.243Z,24.54
2019-06-20T11:15:13.963Z,24.97
2019-06-20T11:17:40.350Z,25.32
2019-06-20T11:20:08.073Z,25.60
2019-06-20T11:22:34.088Z,25.93
2019-06-20T11:25:00.095Z,25.78
2019-06-20T11:27:26.231Z,25.43
2019-06-20T11:29:52.365Z,25.08
2019-06-20T11:32:18.487Z,25.17
2019-06-20T11:34:44.955Z,24.89
2019-06-20T11:37:11.061Z,24.83
2019-06-20T11:39:37.478Z,24.91
2019-06-20T11:42:03.776Z,25.08
2019-06-20T11:44:31.011Z,25.62
2019-06-20T11:46:57.054Z,26.08
2019-06-20T11:49:23.111Z,26.13
2019-06-20T11:51:49.187Z,26.76
2019-06-20T11:54:15.509Z,26.34
2019-06-20T11:56:41.479Z,26.42
2019-06-20T11:59:07.538Z,26.60
2019-06-20T12:01:33.528Z,26.81
2019-06-20T12:03:59.511Z,27.00
2019-06-20T12:06:25.528Z,25.99
2019-06-20T12:08:51.548Z,25.74
2019-06-20T12:11:17.543Z,26.34
2019-06-20T12:13:44.474Z,26.27
2019-06-20T12:16:10.541Z,25.96
2019-06-20T12:18:36.564Z,26.38
2019-06-20T12:21:02.553Z,26.35
2019-06-20T12:23:28.576Z,26.24
2019-06-20T12:25:54.680Z,26.37
2019-06-20T12:28:20.682Z,26.52
2019-06-20T12:30:48.308Z,27.13
2019-06-20T12:33:14.556Z,25.98
2019-06-20T12:35:41.315Z,25.46
2019-06-20T12:38:08.464Z,25.27
2019-06-20T12:40:34.461Z,26.09
2019-06-20T12:43:01.108Z,26.18
2019-06-20T12:45:27.137Z,26.75
2019-06-20T12:47:53.153Z,26.82
2019-06-20T12:50:19.697Z,27.54
2019-06-20T12:52:47.401Z,27.55
2019-06-20T12:55:13.789Z,27.25
2019-06-20T12:57:40.371Z,27.04
2019-06-20T13:00:08.906Z,27.75
2019-06-20T13:02:34.924Z,27.69
2019-06-20T13:05:01.013Z,27.53
2019-06-20T13:07:27.017Z,27.66
2019-06-20T13:09:53.179Z,28.12
2019-06-20T13:12:19.259Z,27.49
2019-06-20T13:14:45.624Z,27.53
2019-06-20T13:17:12.128Z,27.90
2019-06-20T13:19:39.125Z,27.57
2019-06-20T13:22:06.316Z,27.67
2019-06-20T13:24:32.441Z,27.96
2019-06-20T13:26:58.469Z,28.39
2019-06-20T13:29:24.446Z,28.26
2019-06-20T13:32:02.102Z,28.19
2019-06-20T13:34:20.812Z,27.88
2019-06-20T13:36:47.075Z,28.41
2019-06-20T13:39:13.189Z,28.09
2019-06-20T13:41:40.776Z,28.12
2019-06-20T13:44:07.724Z,27.49
2019-06-20T13:46:34.221Z,26.84
2019-06-20T13:49:00.356Z,26.37
2019-06-20T13:51:26.424Z,25.96
2019-06-20T13:53:53.165Z,25.94
2019-06-20T13:56:19.275Z,25.49
2019-06-20T13:58:45.509Z,24.97
2019-06-20T14:01:11.513Z,24.39
2019-06-20T14:03:37.576Z,24.58
2019-06-20T14:06:03.548Z,24.45
2019-06-20T14:08:29.666Z,24.32
2019-06-20T14:10:55.639Z,24.38
2019-06-20T14:13:21.615Z,24.09
2019-06-20T14:15:48.545Z,24.11
2019-06-20T14:18:14.719Z,24.14
2019-06-20T14:20:43.166Z,24.30
2019-06-20T14:23:08.749Z,24.61
2019-06-20T14:25:34.804Z,24.94
2019-06-20T14:28:00.790Z,25.23
2019-06-20T14:30:28.779Z,25.02
2019-06-20T14:32:56.031Z,24.90
2019-06-20T14:35:23.137Z,24.69
2019-06-20T14:37:50.024Z,24.91
2019-06-20T14:40:17.834Z,24.97
2019-06-20T14:42:44.544Z,24.72
2019-06-20T14:45:12.747Z,24.60
2019-06-20T14:47:38.851Z,24.72
2019-06-20T14:50:07.856Z,24.64
2019-06-20T14:52:33.900Z,24.27
2019-06-20T14:54:59.928Z,24.41
2019-06-20T14:57:25.976Z,24.29
2019-06-20T14:59:52.672Z,24.39
2019-06-20T15:02:19.132Z,24.61
2019-06-20T15:04:46.228Z,24.61
2019-06-20T15:07:12.591Z,24.70
2019-06-20T15:09:38.706Z,24.55
2019-06-20T15:12:04.807Z,24.55
2019-06-20T15:14:30.938Z,24.16
2019-06-20T15:16:57.005Z,24.40
2019-06-20T15:19:23.500Z,24.47
2019-06-20T15:21:50.163Z,24.20
2019-06-20T15:24:16.325Z,24.40
2019-06-20T15:26:42.334Z,24.30
2019-06-20T15:29:08.443Z,24.38
2019-06-20T15:31:34.478Z,24.11
2019-06-20T15:34:00.774Z,23.98
2019-06-20T15:36:27.033Z,24.05
2019-06-20T15:38:53.294Z,24.02
2019-06-20T15:41:19.620Z,23.88
2019-06-20T15:43:48.229Z,24.03
2019-06-20T15:46:14.921Z,24.05
2019-06-20T15:48:40.938Z,23.99
2019-06-20T15:51:07.384Z,24.11
2019-06-20T15:53:33.709Z,24.06
2019-06-20T15:55:59.719Z,24.03
2019-06-20T15:58:25.729Z,23.92
2019-06-20T16:00:51.750Z,24.00
2019-06-20T16:03:17.783Z,23.87
2019-06-20T16:05:43.872Z,23.96
2019-06-20T16:08:09.957Z,23.88
2019-06-20T16:10:36.032Z,23.69
2019-06-20T16:13:02.022Z,23.75
2019-06-20T16:15:28.093Z,23.82
2019-06-20T16:17:54.123Z,23.83
2019-06-20T16:20:20.548Z,23.81
2019-06-20T16:22:46.634Z,23.85
2019-06-20T16:25:13.028Z,23.57
2019-06-20T16:27:39.037Z,23.64
2019-06-20T16:30:06.109Z,23.34
2019-06-20T16:32:32.129Z,23.13
2019-06-20T16:34:58.223Z,22.87
2019-06-20T16:37:24.415Z,22.91
2019-06-20T16:39:50.455Z,22.90
2019-06-20T16:42:16.495Z,22.93
2019-06-20T16:44:42.493Z,22.91
2019-06-20T16:47:08.502Z,22.82
2019-06-20T16:49:34.519Z,22.70
2019-06-20T16:52:00.552Z,22.84
2019-06-20T16:54:26.620Z,22.86
2019-06-20T16:56:52.754Z,22.78
2019-06-20T16:59:18.999Z,22.79
2019-06-20T17:01:45.164Z,22.91
2019-06-20T17:04:11.209Z,22.82
2019-06-20T17:06:37.369Z,22.90
2019-06-20T17:09:05.964Z,22.78
2019-06-20T17:11:31.972Z,22.79
2019-06-20T17:13:58.000Z,22.73
2019-06-20T17:16:24.098Z,22.70
2019-06-20T17:18:50.257Z,22.83
2019-06-20T17:21:16.308Z,22.71
2019-06-20T17:23:42.341Z,22.75
2019-06-20T17:26:08.372Z,22.82
2019-06-20T17:28:34.390Z,22.78
2019-06-20T17:31:01.247Z,22.90
2019-06-20T17:33:27.408Z,22.88
2019-06-20T17:35:54.012Z,22.91
2019-06-20T17:38:20.345Z,22.84
2019-06-20T17:40:46.376Z,22.51
2019-06-20T17:43:12.368Z,22.44
2019-06-20T17:45:38.679Z,22.41
2019-06-20T17:48:08.465Z,22.62
2019-06-20T17:50:35.146Z,22.58
2019-06-20T17:53:03.437Z,22.71
2019-06-20T17:55:29.777Z,22.64
2019-06-20T17:57:56.927Z,22.43
2019-06-20T18:00:24.093Z,22.40
2019-06-20T18:02:51.122Z,22.36
2019-06-20T18:05:21.284Z,22.28
2019-06-20T18:08:14.195Z,22.38
2019-06-20T18:10:30.201Z,22.32
2019-06-20T18:12:56.353Z,22.25
2019-06-20T18:15:24.669Z,22.33
2019-06-20T18:17:50.743Z,22.13
2019-06-20T18:20:18.681Z,22.21
2019-06-20T18:22:47.434Z,22.13
2019-06-20T18:25:14.821Z,22.06
2019-06-20T18:27:42.426Z,21.98
2019-06-20T18:30:11.880Z,22.11
2019-06-20T18:32:39.578Z,22.05
2019-06-20T18:35:07.715Z,22.05
2019-06-20T18:37:35.691Z,22.12
2019-06-20T18:40:06.135Z,21.98
2019-06-20T18:42:34.241Z,21.92
2019-06-20T18:45:04.478Z,21.93
2019-06-20T18:47:31.598Z,21.93
2019-06-20T18:49:58.040Z,21.84
2019-06-20T18:52:26.153Z,21.74
2019-06-20T18:54:52.619Z,21.73
2019-06-20T18:57:19.062Z,21.81
2019-06-20T18:59:46.998Z,21.89
2019-06-20T19:02:13.476Z,21.80
2019-06-20T19:04:49.642Z,21.90
2019-06-20T19:07:12.974Z,21.94
2019-06-20T19:09:39.162Z,21.80
2019-06-20T19:12:05.228Z,21.68
2019-06-20T19:14:31.308Z,21.72
2019-06-20T19:16:57.564Z,21.79
2019-06-20T19:19:23.556Z,21.66
2019-06-20T19:21:49.612Z,21.59
2019-06-20T19:24:15.790Z,21.75
2019-06-20T19:26:42.010Z,21.74
2019-06-20T19:29:08.095Z,21.36
2019-06-20T19:31:34.165Z,21.47
2019-06-20T19:34:00.269Z,21.38
2019-06-20T19:36:26.293Z,21.31
2019-06-20T19:38:52.361Z,21.36
2019-06-20T19:41:18.484Z,21.40
2019-06-20T19:43:44.936Z,21.39
2019-06-20T19:46:10.947Z,21.49
2019-06-20T19:48:37.126Z,21.37
2019-06-20T19:51:03.380Z,21.31
2019-06-20T19:53:30.768Z,21.33
2019-06-20T19:55:57.952Z,21.45
2019-06-20T19:58:24.395Z,21.28
2019-06-20T20:00:50.510Z,21.23
2019-06-20T20:03:16.730Z,21.19
2019-06-20T20:05:43.655Z,21.08
2019-06-20T20:08:10.052Z,21.07
2019-06-20T20:10:40.492Z,21.07
2019-06-20T20:13:07.431Z,21.03
2019-06-20T20:15:33.638Z,21.13
2019-06-20T20:17:59.919Z,21.27
2019-06-20T20:20:26.485Z,21.21
2019-06-20T20:22:53.321Z,21.28
2019-06-20T20:25:19.616Z,21.45
2019-06-20T20:27:45.807Z,21.33
2019-06-20T20:30:13.478Z,21.08
2019-06-20T20:32:40.129Z,20.92
2019-06-20T20:35:06.891Z,20.72
2019-06-20T20:37:33.210Z,20.86
2019-06-20T20:39:59.358Z,20.86
2019-06-20T20:42:25.600Z,20.76
2019-06-20T20:44:52.369Z,20.64
2019-06-20T20:47:18.918Z,20.56
2019-06-20T20:49:45.457Z,20.54
2019-06-20T20:52:11.514Z,20.58
2019-06-20T20:54:37.909Z,20.54
2019-06-20T20:57:04.613Z,20.62
2019-06-20T20:59:33.087Z,20.57
2019-06-20T21:01:59.246Z,20.62
2019-06-20T21:04:25.657Z,20.39
2019-06-20T21:06:52.035Z,20.53
2019-06-20T21:09:18.081Z,20.31
2019-06-20T21:11:44.448Z,20.25
2019-06-20T21:14:10.867Z,20.22
2019-06-20T21:16:37.000Z,20.17
2019-06-20T21:19:03.496Z,20.20
2019-06-20T21:21:29.878Z,20.43
2019-06-20T21:23:57.210Z,20.47
2019-06-20T21:26:23.400Z,20.53
2019-06-20T21:28:49.438Z,20.27
2019-06-20T21:31:15.491Z,19.87
2019-06-20T21:33:41.729Z,19.75
2019-06-20T21:36:09.231Z,19.84
2019-06-20T21:38:36.014Z,19.90
2019-06-20T21:41:02.976Z,19.97
2019-06-20T21:43:29.824Z,19.95
2019-06-20T21:45:55.956Z,19.94
2019-06-20T21:48:22.315Z,20.24
2019-06-20T21:50:48.600Z,20.34
2019-06-20T21:53:14.698Z,20.58
2019-06-20T21:55:40.868Z,20.57
2019-06-20T21:58:06.860Z,20.69
2019-06-20T22:00:40.082Z,20.59
2019-06-20T22:03:06.809Z,20.39
2019-06-20T22:05:32.824Z,20.49
2019-06-20T22:07:58.946Z,20.43
2019-06-20T22:10:25.071Z,20.55
2019-06-20T22:12:51.110Z,20.54
2019-06-20T22:15:17.399Z,20.78
2019-06-20T22:17:43.449Z,20.79
2019-06-20T22:20:09.792Z,20.96
2019-06-20T22:22:35.868Z,20.85
2019-06-20T22:25:05.087Z,20.91
2019-06-20T22:27:31.165Z,20.80
2019-06-20T22:29:57.188Z,20.72
2019-06-20T22:32:23.196Z,20.57
2019-06-20T22:34:49.200Z,20.53
2019-06-20T22:37:15.324Z,20.87
2019-06-20T22:39:41.316Z,20.54
2019-06-20T22:42:07.362Z,20.41
2019-06-20T22:44:33.461Z,20.47
2019-06-20T22:46:59.452Z,20.41
2019-06-20T22:49:25.447Z,20.35
2019-06-20T22:51:51.491Z,20.25
2019-06-20T22:54:17.563Z,20.21
2019-06-20T22:56:43.545Z,20.20
2019-06-20T22:59:09.622Z,20.35
2019-06-20T23:01:36.152Z,20.30
2019-06-20T23:04:02.228Z,20.31
2019-06-20T23:06:28.987Z,20.39
2019-06-20T23:08:55.019Z,20.46
2019-06-20T23:11:21.445Z,20.45
2019-06-20T23:13:47.540Z,20.43
2019-06-20T23:16:13.586Z,20.62
2019-06-20T23:18:39.607Z,20.64
2019-06-20T23:21:05.615Z,20.49
2019-06-20T23:23:31.656Z,20.60
2019-06-20T23:25:59.551Z,20.55
2019-06-20T23:28:25.600Z,20.57
2019-06-20T23:30:51.667Z,20.53
2019-06-20T23:33:17.724Z,20.53
2019-06-20T23:35:43.814Z,20.48
2019-06-20T23:38:09.855Z,20.62
2019-06-20T23:40:36.117Z,20.47
2019-06-20T23:43:02.300Z,20.44
2019-06-20T23:45:28.296Z,20.44
2019-06-20T23:47:54.318Z,20.45
2019-06-20T23:50:20.744Z,20.71
2019-06-20T23:53:00.402Z,20.50
2019-06-20T23:55:26.499Z,20.33
2019-06-20T23:57:52.501Z,20.29
